createdAt,value
2018-03-16T00:01:06.180Z,7.80
2018-03-16T00:03:35.482Z,7.70
2018-03-16T00:06:04.772Z,7.40
2018-03-16T00:08:34.075Z,7.40
2018-03-16T00:11:04.079Z,7.30
2018-03-16T00:13:33.365Z,7.30
2018-03-16T00:16:02.731Z,7.40
2018-03-16T00:18:32.040Z,7.50
2018-03-16T00:21:01.250Z,7.80
2018-03-16T00:23:31.313Z,7.90
2018-03-16T00:26:00.591Z,7.90
2018-03-16T00:28:29.860Z,7.90
2018-03-16T00:30:59.142Z,7.70
2018-03-16T00:33:28.404Z,7.50
2018-03-16T00:35:57.631Z,7.50
2018-03-16T00:38:26.907Z,7.40
2018-03-16T00:40:56.195Z,7.40
2018-03-16T00:43:26.430Z,7.30
2018-03-16T00:45:55.651Z,7.30
2018-03-16T00:48:24.874Z,7.20
2018-03-16T00:50:54.855Z,7.20
2018-03-16T00:53:24.139Z,7.20
2018-03-16T00:55:53.483Z,7.30
2018-03-16T00:58:22.817Z,7.20
2018-03-16T01:00:52.850Z,7.10
2018-03-16T01:03:22.119Z,7.10
2018-03-16T01:05:52.979Z,7.20
2018-03-16T01:08:22.271Z,7.10
2018-03-16T01:10:52.055Z,7.10
2018-03-16T01:13:21.313Z,7.10
2018-03-16T01:15:50.584Z,7.20
2018-03-16T01:18:19.879Z,7.40
2018-03-16T01:20:49.160Z,7.30
2018-03-16T01:23:18.381Z,7.20
2018-03-16T01:25:47.641Z,7.10
2018-03-16T01:28:17.675Z,7.20
2018-03-16T01:30:47.676Z,7.20
2018-03-16T01:33:17.699Z,7.20
2018-03-16T01:35:47.751Z,7.00
2018-03-16T01:38:16.960Z,7.00
2018-03-16T01:40:46.247Z,7.00
2018-03-16T01:43:15.499Z,7.20
2018-03-16T01:45:44.731Z,7.50
2018-03-16T01:48:13.996Z,7.50
2018-03-16T01:50:43.239Z,7.30
2018-03-16T01:53:17.344Z,7.30
2018-03-16T01:55:46.595Z,7.30
2018-03-16T01:58:15.859Z,7.40
2018-03-16T02:00:45.159Z,7.20
2018-03-16T02:03:14.439Z,7.00
2018-03-16T02:05:44.452Z,7.20
2018-03-16T02:08:13.737Z,7.20
2018-03-16T02:10:43.057Z,7.50
2018-03-16T02:13:12.292Z,7.30
2018-03-16T02:15:41.532Z,7.00
2018-03-16T02:18:11.632Z,6.70
2018-03-16T02:20:40.943Z,6.70
2018-03-16T02:23:10.942Z,6.70
2018-03-16T02:25:40.871Z,6.70
2018-03-16T02:28:10.139Z,6.80
2018-03-16T02:30:39.392Z,6.80
2018-03-16T02:33:08.651Z,6.60
2018-03-16T02:35:37.935Z,6.80
2018-03-16T02:38:07.167Z,6.70
2018-03-16T02:40:36.432Z,6.80
2018-03-16T02:43:05.796Z,6.90
2018-03-16T02:45:35.791Z,6.90
2018-03-16T02:48:05.815Z,6.90
2018-03-16T02:50:35.093Z,6.90
2018-03-16T02:53:05.119Z,6.70
2018-03-16T02:55:35.134Z,6.50
2018-03-16T02:58:04.415Z,6.50
2018-03-16T03:00:33.656Z,6.40
2018-03-16T03:03:02.904Z,6.30
2018-03-16T03:05:32.152Z,6.30
2018-03-16T03:08:01.500Z,6.30
2018-03-16T03:10:30.803Z,6.10
2018-03-16T03:13:00.072Z,6.10
2018-03-16T03:15:29.299Z,6.10
2018-03-16T03:17:58.555Z,6.10
2018-03-16T03:20:28.539Z,6.20
2018-03-16T03:22:58.592Z,6.20
2018-03-16T03:25:27.849Z,6.20
2018-03-16T03:27:57.111Z,6.30
2018-03-16T03:30:26.340Z,6.10
2018-03-16T03:32:55.575Z,6.10
2018-03-16T03:35:25.643Z,5.90
2018-03-16T03:37:54.870Z,5.90
2018-03-16T03:40:24.171Z,5.90
2018-03-16T03:42:53.423Z,6.00
2018-03-16T03:45:22.663Z,6.10
2018-03-16T03:47:52.635Z,6.30
2018-03-16T03:50:21.850Z,6.30
2018-03-16T03:52:51.099Z,6.40
2018-03-16T03:55:21.122Z,6.30
2018-03-16T03:57:50.430Z,6.20
2018-03-16T04:00:19.703Z,6.30
2018-03-16T04:02:49.003Z,6.20
2018-03-16T04:05:19.056Z,5.90
2018-03-16T04:07:49.083Z,6.00
2018-03-16T04:10:19.170Z,6.10
2018-03-16T04:12:48.412Z,6.10
2018-03-16T04:15:17.643Z,6.10
2018-03-16T04:17:46.925Z,6.00
2018-03-16T04:20:16.239Z,5.80
2018-03-16T04:22:46.299Z,5.90
2018-03-16T04:25:15.602Z,5.80
2018-03-16T04:27:44.871Z,5.90
2018-03-16T04:30:14.919Z,5.60
2018-03-16T04:32:44.219Z,5.60
2018-03-16T04:35:13.482Z,5.50
2018-03-16T04:37:43.563Z,5.60
2018-03-16T04:40:12.819Z,5.50
2018-03-16T04:42:42.060Z,5.50
2018-03-16T04:45:11.303Z,5.50
2018-03-16T04:47:41.332Z,5.70
2018-03-16T04:50:10.619Z,5.70
2018-03-16T04:52:39.912Z,5.80
2018-03-16T04:55:09.220Z,5.80
2018-03-16T04:57:38.494Z,5.80
2018-03-16T05:00:07.758Z,5.80
2018-03-16T05:02:37.037Z,5.70
2018-03-16T05:05:06.292Z,5.50
2018-03-16T05:07:35.531Z,5.50
2018-03-16T05:10:04.872Z,5.40
2018-03-16T05:12:34.192Z,5.30
2018-03-16T05:15:03.459Z,5.30
2018-03-16T05:17:32.720Z,5.40
2018-03-16T05:20:01.980Z,5.40
2018-03-16T05:22:31.216Z,5.50
2018-03-16T05:25:00.515Z,5.50
2018-03-16T05:27:29.815Z,5.60
2018-03-16T05:29:59.852Z,5.60
2018-03-16T05:32:29.104Z,5.60
2018-03-16T05:34:58.396Z,5.60
2018-03-16T05:37:27.716Z,5.50
2018-03-16T05:39:56.960Z,5.50
2018-03-16T05:42:26.206Z,5.50
2018-03-16T05:44:55.511Z,5.60
2018-03-16T05:47:25.578Z,5.60
2018-03-16T05:49:54.864Z,5.60
2018-03-16T05:52:24.171Z,5.60
2018-03-16T05:54:53.483Z,5.60
2018-03-16T05:57:22.775Z,5.60
2018-03-16T05:59:52.062Z,5.60
2018-03-16T06:02:21.334Z,5.60
2018-03-16T06:04:50.604Z,5.70
2018-03-16T06:07:19.855Z,5.70
2018-03-16T06:09:49.872Z,5.70
2018-03-16T06:12:19.122Z,5.70
2018-03-16T06:14:48.388Z,5.80
2018-03-16T06:17:17.615Z,5.80
2018-03-16T06:19:46.898Z,5.80
2018-03-16T06:22:16.160Z,5.80
2018-03-16T06:24:45.454Z,5.70
2018-03-16T06:27:15.474Z,5.80
2018-03-16T06:29:44.775Z,5.80
2018-03-16T06:32:14.020Z,5.80
2018-03-16T06:34:43.318Z,5.90
2018-03-16T06:37:12.577Z,5.80
2018-03-16T06:39:41.880Z,5.80
2018-03-16T06:42:11.164Z,5.80
2018-03-16T06:44:40.510Z,5.80
2018-03-16T06:47:10.513Z,5.90
2018-03-16T06:49:39.779Z,5.90
2018-03-16T06:52:09.823Z,5.80
2018-03-16T06:54:39.104Z,5.80
2018-03-16T06:57:08.352Z,5.90
2018-03-16T06:59:37.599Z,5.90
2018-03-16T07:02:06.905Z,5.90
2018-03-16T07:04:36.211Z,5.90
2018-03-16T07:07:05.495Z,6.00
2018-03-16T07:09:34.760Z,6.10
2018-03-16T07:12:04.078Z,6.10
2018-03-16T07:14:33.396Z,6.20
2018-03-16T07:17:03.444Z,6.20
2018-03-16T07:19:32.723Z,6.20
2018-03-16T07:22:02.027Z,6.20
2018-03-16T07:24:31.291Z,6.20
2018-03-16T07:27:00.575Z,6.20
2018-03-16T07:29:30.651Z,6.10
2018-03-16T07:31:59.918Z,6.10
2018-03-16T07:34:29.191Z,6.10
2018-03-16T07:36:58.470Z,6.10
2018-03-16T07:39:27.787Z,6.10
2018-03-16T07:41:57.051Z,6.20
2018-03-16T07:44:26.320Z,6.30
2018-03-16T07:46:56.359Z,6.40
2018-03-16T07:49:25.592Z,6.40
2018-03-16T07:51:54.846Z,6.50
2018-03-16T07:54:24.077Z,6.50
2018-03-16T07:56:53.363Z,6.50
2018-03-16T07:59:22.687Z,6.50
2018-03-16T08:01:52.003Z,6.60
2018-03-16T08:04:21.251Z,6.60
2018-03-16T08:06:50.540Z,6.60
2018-03-16T08:09:19.851Z,6.60
2018-03-16T08:11:49.118Z,6.50
2018-03-16T08:14:18.420Z,6.50
2018-03-16T08:16:47.735Z,6.50
2018-03-16T08:19:17.032Z,6.50
2018-03-16T08:21:46.302Z,6.50
2018-03-16T08:24:16.338Z,6.60
2018-03-16T08:26:46.371Z,6.60
2018-03-16T08:29:15.681Z,6.60
2018-03-16T08:31:44.939Z,6.80
2018-03-16T08:34:14.960Z,7.30
2018-03-16T08:36:45.018Z,7.40
2018-03-16T08:39:14.336Z,7.30
2018-03-16T08:41:43.640Z,7.50
2018-03-16T08:44:12.922Z,7.60
2018-03-16T08:46:42.203Z,7.70
2018-03-16T08:49:11.451Z,7.70
2018-03-16T08:51:40.700Z,7.60
2018-03-16T08:54:09.964Z,7.60
2018-03-16T08:56:40.022Z,7.60
2018-03-16T08:59:09.310Z,7.60
2018-03-16T09:01:39.275Z,7.90
2018-03-16T09:04:08.464Z,7.90
2018-03-16T09:06:37.708Z,8.10
2018-03-16T09:09:07.688Z,8.20
2018-03-16T09:11:36.956Z,8.10
2018-03-16T09:14:06.178Z,8.10
2018-03-16T09:16:35.483Z,8.10
2018-03-16T09:19:04.729Z,8.20
2018-03-16T09:21:38.252Z,8.60
2018-03-16T09:24:07.679Z,8.60
2018-03-16T09:26:36.871Z,8.70
2018-03-16T09:29:06.178Z,8.60
2018-03-16T09:31:35.439Z,8.70
2018-03-16T09:34:05.426Z,8.80
2018-03-16T09:36:34.672Z,8.80
2018-03-16T09:39:04.047Z,8.80
2018-03-16T09:41:33.326Z,8.80
2018-03-16T09:44:03.357Z,8.80
2018-03-16T09:46:32.666Z,8.80
2018-03-16T09:49:01.925Z,9.20
2018-03-16T09:51:31.211Z,9.20
2018-03-16T09:54:00.462Z,9.30
2018-03-16T09:56:29.720Z,9.20
2018-03-16T09:58:59.823Z,9.20
2018-03-16T10:01:29.158Z,9.20
2018-03-16T10:03:58.423Z,9.40
2018-03-16T10:06:27.680Z,9.50
2018-03-16T10:08:57.704Z,9.60
2018-03-16T10:11:26.966Z,9.50
2018-03-16T10:13:56.244Z,9.60
2018-03-16T10:16:25.535Z,9.80
2018-03-16T10:18:54.809Z,9.70
2018-03-16T10:21:24.040Z,9.60
2018-03-16T10:23:53.296Z,9.80
2018-03-16T10:26:22.575Z,9.90
2018-03-16T10:28:51.822Z,9.90
2018-03-16T10:31:21.120Z,10.10
2018-03-16T10:33:50.424Z,10.40
2018-03-16T10:36:20.404Z,10.50
2018-03-16T10:38:49.676Z,10.90
2018-03-16T10:41:19.720Z,10.70
2018-03-16T10:43:48.974Z,10.70
2018-03-16T10:46:18.224Z,10.50
2018-03-16T10:48:47.495Z,10.50
2018-03-16T10:51:16.784Z,11.20
2018-03-16T10:53:46.855Z,10.90
2018-03-16T10:56:16.124Z,10.90
2018-03-16T10:58:45.419Z,11.40
2018-03-16T11:01:19.191Z,11.40
2018-03-16T11:03:51.255Z,11.40
2018-03-16T11:06:25.934Z,11.30
2018-03-16T11:08:55.944Z,11.60
2018-03-16T11:11:25.179Z,11.60
2018-03-16T11:13:54.433Z,11.60
2018-03-16T11:16:23.807Z,11.90
2018-03-16T11:18:53.028Z,12.00
2018-03-16T11:21:23.100Z,12.60
2018-03-16T11:23:52.507Z,12.50
2018-03-16T11:28:20.780Z,13.00
2018-03-16T11:30:50.940Z,12.70
2018-03-16T11:33:21.099Z,12.80
2018-03-16T11:35:51.181Z,12.70
2018-03-16T11:38:20.595Z,12.70
2018-03-16T11:40:49.991Z,12.60
2018-03-16T11:43:19.340Z,12.80
2018-03-16T11:45:49.412Z,12.70
2018-03-16T11:48:18.755Z,12.70
2018-03-16T11:50:48.035Z,12.80
2018-03-16T11:53:17.359Z,12.40
2018-03-16T11:55:46.713Z,12.30
2018-03-16T11:58:16.226Z,12.80
2018-03-16T12:00:45.688Z,12.90
2018-03-16T12:03:15.136Z,12.80
2018-03-16T12:05:44.536Z,12.80
2018-03-16T12:08:14.015Z,12.60
2018-03-16T12:10:43.439Z,12.70
2018-03-16T12:13:12.924Z,12.80
2018-03-16T12:15:43.260Z,13.10
2018-03-16T12:18:13.579Z,13.10
2018-03-16T12:20:43.139Z,13.10
2018-03-16T12:23:12.592Z,12.80
2018-03-16T12:25:42.837Z,12.60
2018-03-16T12:28:13.064Z,12.50
2018-03-16T12:30:43.544Z,12.50
2018-03-16T12:33:12.995Z,12.50
2018-03-16T12:35:43.172Z,12.60
2018-03-16T12:38:12.757Z,12.60
2018-03-16T12:40:43.564Z,12.60
2018-03-16T12:43:13.731Z,12.50
2018-03-16T12:45:43.272Z,12.50
2018-03-16T12:48:12.737Z,12.50
2018-03-16T12:50:43.036Z,12.80
2018-03-16T12:53:13.319Z,13.10
2018-03-16T12:55:43.424Z,13.10
2018-03-16T12:58:12.881Z,12.90
2018-03-16T13:00:42.407Z,12.60
2018-03-16T13:03:12.720Z,12.70
2018-03-16T13:05:42.142Z,12.60
2018-03-16T13:08:12.455Z,12.90
2018-03-16T13:10:41.977Z,12.90
2018-03-16T13:13:11.424Z,12.60
2018-03-16T13:15:40.784Z,12.50
2018-03-16T13:18:10.203Z,12.60
2018-03-16T13:20:40.378Z,12.80
2018-03-16T13:23:10.512Z,12.90
2018-03-16T13:25:40.755Z,12.70
2018-03-16T13:28:10.173Z,12.70
2018-03-16T13:30:39.668Z,12.90
2018-03-16T13:33:09.091Z,12.90
2018-03-16T13:35:39.542Z,12.90
2018-03-16T13:38:09.091Z,12.80
2018-03-16T13:40:38.628Z,13.00
2018-03-16T13:43:08.119Z,12.90
2018-03-16T13:45:37.643Z,12.90
2018-03-16T13:48:07.936Z,12.90
2018-03-16T13:50:37.358Z,12.90
2018-03-16T13:53:06.753Z,12.90
2018-03-16T13:55:37.003Z,12.80
2018-03-16T13:58:07.323Z,12.90
2018-03-16T14:00:37.514Z,12.90
2018-03-16T14:03:06.913Z,12.90
2018-03-16T14:05:36.365Z,12.80
2018-03-16T14:08:05.897Z,12.70
2018-03-16T14:10:35.361Z,12.70
2018-03-16T14:13:04.780Z,12.80
2018-03-16T14:15:34.147Z,12.90
2018-03-16T14:18:03.639Z,12.90
2018-03-16T14:20:33.002Z,12.80
2018-03-16T14:23:02.499Z,12.80
2018-03-16T14:25:31.841Z,12.60
2018-03-16T14:28:01.229Z,12.60
2018-03-16T14:30:30.623Z,12.50
2018-03-16T14:32:59.988Z,12.40
2018-03-16T14:35:30.113Z,12.40
2018-03-16T14:38:00.156Z,12.50
2018-03-16T14:40:29.543Z,12.40
2018-03-16T14:42:58.980Z,12.40
2018-03-16T14:45:28.320Z,12.50
2018-03-16T14:47:57.720Z,12.60
2018-03-16T14:50:27.856Z,12.40
2018-03-16T14:52:57.213Z,12.40
2018-03-16T14:55:26.603Z,12.40
2018-03-16T14:57:56.002Z,12.20
2018-03-16T15:00:25.358Z,11.70
2018-03-16T15:02:55.383Z,11.80
2018-03-16T15:05:25.587Z,11.80
2018-03-16T15:07:54.952Z,11.80
2018-03-16T15:10:24.332Z,11.70
2018-03-16T15:12:54.185Z,11.70
2018-03-16T15:15:23.600Z,11.80
2018-03-16T15:17:52.922Z,11.70
2018-03-16T15:22:57.773Z,11.60
2018-03-16T15:25:27.952Z,11.50
2018-03-16T15:27:57.251Z,11.50
2018-03-16T15:30:27.218Z,11.50
2018-03-16T15:32:56.525Z,11.40
2018-03-16T15:35:25.878Z,11.30
2018-03-16T15:37:55.977Z,11.00
2018-03-16T15:40:25.313Z,11.00
2018-03-16T15:42:55.381Z,11.00
2018-03-16T15:45:24.723Z,11.00
2018-03-16T15:47:54.792Z,10.90
2018-03-16T15:50:24.262Z,10.90
2018-03-16T15:52:53.679Z,10.80
2018-03-16T15:55:22.981Z,10.80
2018-03-16T15:57:52.378Z,10.40
2018-03-16T16:00:21.750Z,10.50
2018-03-16T16:02:51.039Z,10.50
2018-03-16T16:05:20.330Z,10.70
2018-03-16T16:07:49.662Z,10.70
2018-03-16T16:10:19.741Z,10.70
2018-03-16T16:12:49.122Z,10.70
2018-03-16T16:15:18.589Z,10.70
2018-03-16T16:17:47.979Z,10.60
2018-03-16T16:20:18.072Z,10.60
2018-03-16T16:22:47.385Z,10.60
2018-03-16T16:25:16.657Z,10.50
2018-03-16T16:27:45.925Z,10.40
2018-03-16T16:30:15.227Z,10.30
2018-03-16T16:32:44.515Z,10.30
2018-03-16T16:35:14.546Z,10.10
2018-03-16T16:37:43.835Z,10.10
2018-03-16T16:40:13.862Z,10.10
2018-03-16T16:42:43.099Z,10.00
2018-03-16T16:45:12.381Z,10.00
2018-03-16T16:47:41.979Z,9.90
2018-03-16T16:50:11.305Z,9.80
2018-03-16T16:52:40.561Z,9.80
2018-03-16T16:55:10.650Z,9.70
2018-03-16T16:57:39.903Z,9.70
2018-03-16T17:00:09.397Z,9.50
2018-03-16T17:02:38.705Z,9.60
2018-03-16T17:05:08.028Z,9.60
2018-03-16T17:07:37.310Z,9.30
2018-03-16T17:10:06.648Z,9.20
2018-03-16T17:12:35.937Z,9.30
2018-03-16T17:15:11.211Z,9.30
2018-03-16T17:17:46.462Z,9.30
2018-03-16T17:20:22.958Z,9.30
2018-03-16T17:22:58.222Z,9.30
2018-03-16T17:25:33.544Z,9.40
2018-03-16T17:28:02.929Z,9.40
2018-03-16T17:30:32.225Z,9.30
2018-03-16T17:33:01.473Z,9.20
2018-03-16T17:35:30.710Z,9.20
2018-03-16T17:38:00.058Z,9.20
2018-03-16T17:40:29.319Z,9.10
2018-03-16T17:42:58.609Z,9.20
2018-03-16T17:45:27.922Z,9.10
2018-03-16T17:47:57.170Z,9.20
2018-03-16T17:50:26.578Z,9.20
2018-03-16T17:52:55.850Z,9.10
2018-03-16T17:55:26.210Z,9.10
2018-03-16T17:57:56.274Z,9.30
2018-03-16T18:00:25.602Z,9.30
2018-03-16T18:02:54.871Z,9.20
2018-03-16T18:05:24.331Z,9.10
2018-03-16T18:07:53.563Z,9.10
2018-03-16T18:10:22.876Z,9.00
2018-03-16T18:12:52.202Z,8.80
2018-03-16T18:15:21.510Z,8.90
2018-03-16T18:17:50.811Z,8.80
2018-03-16T18:20:20.108Z,8.70
2018-03-16T18:22:49.376Z,8.70
2018-03-16T18:25:18.661Z,8.70
2018-03-16T18:27:47.897Z,8.70
2018-03-16T18:30:17.202Z,8.70
2018-03-16T18:32:46.497Z,8.60
2018-03-16T18:35:15.830Z,8.40
2018-03-16T18:37:45.050Z,8.40
2018-03-16T18:40:14.331Z,8.40
2018-03-16T18:42:43.582Z,8.40
2018-03-16T18:45:12.936Z,8.40
2018-03-16T18:47:43.645Z,8.40
2018-03-16T18:50:12.992Z,8.50
2018-03-16T18:52:42.362Z,8.40
2018-03-16T18:55:11.713Z,8.40
2018-03-16T18:57:41.782Z,8.20
2018-03-16T19:00:11.146Z,8.20
2018-03-16T19:02:40.454Z,8.20
2018-03-16T19:05:09.730Z,8.10
2018-03-16T19:07:39.137Z,8.00
2018-03-16T19:10:08.408Z,7.80
2018-03-16T19:12:37.675Z,7.80
2018-03-16T19:15:07.072Z,7.80
2018-03-16T19:17:36.313Z,7.70
2018-03-16T19:20:05.622Z,7.60
2018-03-16T19:22:35.044Z,7.50
2018-03-16T19:25:04.332Z,7.50
2018-03-16T19:27:33.631Z,7.50
2018-03-16T19:30:02.966Z,7.50
2018-03-16T19:32:32.353Z,7.40
2018-03-16T19:35:01.645Z,7.40
2018-03-16T19:37:30.920Z,7.40
2018-03-16T19:40:00.161Z,7.40
2018-03-16T19:42:29.390Z,7.20
2018-03-16T19:44:59.413Z,7.10
2018-03-16T19:47:29.436Z,7.00
2018-03-16T19:49:58.815Z,7.00
2018-03-16T19:52:35.060Z,6.70
2018-03-16T19:55:04.504Z,6.70
2018-03-16T19:57:33.806Z,6.70
2018-03-16T20:00:03.942Z,6.70
2018-03-16T20:02:33.156Z,6.60
2018-03-16T20:05:02.403Z,6.70
2018-03-16T20:07:32.477Z,6.70
2018-03-16T20:10:01.751Z,6.70
2018-03-16T20:12:32.006Z,6.60
2018-03-16T20:15:01.325Z,6.70
2018-03-16T20:17:30.703Z,6.60
2018-03-16T20:19:59.964Z,6.60
2018-03-16T20:22:30.008Z,6.50
2018-03-16T20:24:59.246Z,6.50
2018-03-16T20:27:28.528Z,6.50
2018-03-16T20:29:57.832Z,6.40
2018-03-16T20:32:27.090Z,6.40
2018-03-16T20:34:56.424Z,6.40
2018-03-16T20:40:01.021Z,6.30
2018-03-16T20:42:30.318Z,6.20
2018-03-16T20:45:00.399Z,6.10
2018-03-16T20:47:29.733Z,6.10
2018-03-16T20:49:59.813Z,6.20
2018-03-16T20:52:29.773Z,6.10
2018-03-16T20:54:59.790Z,5.90
2018-03-16T20:57:29.073Z,5.90
2018-03-16T20:59:58.414Z,5.90
2018-03-16T21:02:27.741Z,6.00
2018-03-16T21:04:57.022Z,5.80
2018-03-16T21:07:26.310Z,5.80
2018-03-16T21:09:55.625Z,5.80
2018-03-16T21:12:24.965Z,5.80
2018-03-16T21:14:55.050Z,5.90
2018-03-16T21:17:24.330Z,5.80
2018-03-16T21:19:53.650Z,5.90
2018-03-16T21:22:22.939Z,5.80
2018-03-16T21:24:52.210Z,5.70
2018-03-16T21:27:21.489Z,5.50
2018-03-16T21:29:52.350Z,5.60
2018-03-16T21:32:21.608Z,5.60
2018-03-16T21:34:51.698Z,5.70
2018-03-16T21:37:20.950Z,5.70
2018-03-16T21:39:50.942Z,5.60
2018-03-16T21:42:20.196Z,5.60
2018-03-16T21:44:49.432Z,5.50
2018-03-16T21:47:18.690Z,5.50
2018-03-16T21:49:47.941Z,5.40
2018-03-16T21:52:17.962Z,5.40
2018-03-16T21:54:47.206Z,5.30
2018-03-16T21:57:16.470Z,5.30
2018-03-16T21:59:46.498Z,5.30
2018-03-16T22:02:15.972Z,5.30
2018-03-16T22:04:45.238Z,5.40
2018-03-16T22:07:15.413Z,5.50
2018-03-16T22:09:44.710Z,5.40
2018-03-16T22:12:14.738Z,5.30
2018-03-16T22:14:43.997Z,5.30
2018-03-16T22:17:13.271Z,5.40
2018-03-16T22:19:42.581Z,5.30
2018-03-16T22:22:11.962Z,5.10
2018-03-16T22:24:41.981Z,4.90
2018-03-16T22:27:11.218Z,4.80
2018-03-16T22:29:40.486Z,4.80
2018-03-16T22:32:09.790Z,4.80
2018-03-16T22:34:39.062Z,4.70
2018-03-16T22:37:08.400Z,4.70
2018-03-16T22:39:37.645Z,4.70
2018-03-16T22:42:07.670Z,4.90
2018-03-16T22:44:36.911Z,4.90
2018-03-16T22:47:06.161Z,5.10
2018-03-16T22:49:36.170Z,5.20
2018-03-16T22:52:07.089Z,5.20
2018-03-16T22:54:36.372Z,5.20
2018-03-16T22:57:05.659Z,5.00
2018-03-16T22:59:34.922Z,4.90
2018-03-16T23:02:04.263Z,4.60
2018-03-16T23:04:33.489Z,4.60
2018-03-16T23:07:02.754Z,4.60
2018-03-16T23:09:32.007Z,4.60
2018-03-16T23:12:01.989Z,4.60
2018-03-16T23:14:31.289Z,4.60
2018-03-16T23:17:00.530Z,4.60
2018-03-16T23:19:30.505Z,4.80
2018-03-16T23:21:59.790Z,4.80
2018-03-16T23:24:29.079Z,4.80
2018-03-16T23:26:58.266Z,4.50
2018-03-16T23:29:27.568Z,4.50
2018-03-16T23:31:56.839Z,4.50
2018-03-16T23:34:26.883Z,4.60
2018-03-16T23:36:56.182Z,4.60
2018-03-16T23:39:25.568Z,4.50
2018-03-16T23:41:54.845Z,4.40
2018-03-16T23:44:24.841Z,4.50
2018-03-16T23:46:54.069Z,4.50
2018-03-16T23:49:23.310Z,4.40
2018-03-16T23:51:52.580Z,4.50
2018-03-16T23:54:21.841Z,4.40
2018-03-16T23:56:51.110Z,4.40
2018-03-16T23:59:20.341Z,4.40
